Time;durP1;ratioP1;P1;durP2;ratioP2;P2;SDS_P1;SDS_P2;PMS_P1;PMS_P2;Temp;Humidity;BMP_temperature;BMP_pressure;BME280_temperature;BME280_humidity;BME280_pressure;Samples;Min_cycle;Max_cycle;Signal;HPM_P1;HPM_P2
2021/03/08 00:00:38;;;;;;;153.80;64.30;;;;;;;-1.99;61.62;97139.64;1836137;77;25738;-86
2021/03/08 00:03:09;;;;;;;149.30;62.67;;;;;;;-2.01;61.57;97142.91;1820116;77;25844;-85
2021/03/08 00:05:37;;;;;;;160.30;64.72;;;;;;;-2.00;61.66;97145.06;1817987;77;25814;-85
2021/03/08 00:08:05;;;;;;;154.70;65.95;;;;;;;-2.00;61.68;97135.32;1818031;77;26317;-85
2021/03/08 00:10:33;;;;;;;154.47;65.52;;;;;;;-1.96;61.68;97139.37;1818134;77;28452;-85
2021/03/08 00:13:01;;;;;;;168.55;68.22;;;;;;;-1.96;61.65;97135.40;1818075;77;26236;-86
2021/03/08 00:15:28;;;;;;;184.82;71.12;;;;;;;-1.93;61.70;97133.77;1818014;77;25751;-84
2021/03/08 00:17:56;;;;;;;199.55;77.27;;;;;;;-1.93;61.71;97138.23;1822470;77;25739;-84
2021/03/08 00:20:26;;;;;;;167.53;70.40;;;;;;;-1.93;61.83;97132.45;1768124;80;25701;-84
2021/03/08 00:22:55;;;;;;;172.72;71.62;;;;;;;-1.95;61.96;97129.13;1763772;80;27544;-84
2021/03/08 00:25:29;;;;;;;172.98;72.65;;;;;;;-1.95;61.97;97118.55;1785850;80;26354;-88
2021/03/08 00:27:57;;;;;;;174.57;70.08;;;;;;;-1.94;62.05;97119.39;1763333;80;26278;-84
2021/03/08 00:30:25;;;;;;;172.28;72.53;;;;;;;-1.96;62.02;97118.20;1749300;80;25759;-84
2021/03/08 00:32:53;;;;;;;164.20;67.40;;;;;;;-1.89;62.09;97119.30;1758592;80;25883;-84
2021/03/08 00:35:20;;;;;;;156.90;69.15;;;;;;;-1.87;61.99;97113.38;1769888;80;28530;-84
2021/03/08 00:37:48;;;;;;;174.45;69.15;;;;;;;-1.85;61.94;97106.14;1767172;80;25383;-84
2021/03/08 00:40:21;;;;;;;167.30;69.35;;;;;;;-1.86;61.98;97111.09;1765858;80;25851;-84
2021/03/08 00:42:50;;;;;;;197.62;79.47;;;;;;;-1.88;61.91;97102.45;1791620;78;25791;-84
2021/03/08 00:45:20;;;;;;;195.65;80.00;;;;;;;-1.89;62.04;97098.13;1782303;80;25815;-83
2021/03/08 00:47:48;;;;;;;206.05;81.08;;;;;;;-1.93;62.05;97096.73;1769565;79;26768;-84
2021/03/08 00:50:27;;;;;;;177.90;72.65;;;;;;;-1.91;62.12;97093.95;1739509;81;25838;-85
2021/03/08 00:52:55;;;;;;;178.62;73.50;;;;;;;-1.99;62.10;97093.34;1734449;81;25791;-85
2021/03/08 00:55:23;;;;;;;167.85;63.85;;;;;;;-2.04;62.14;97092.09;1724800;79;25697;-85
2021/03/08 00:57:50;;;;;;;153.70;65.70;;;;;;;-2.10;62.25;97089.53;1791503;79;25792;-85
2021/03/08 01:00:25;;;;;;;149.93;59.18;;;;;;;-2.23;62.20;97092.46;1784277;78;27542;-85
2021/03/08 01:02:53;;;;;;;133.55;57.75;;;;;;;-2.32;62.30;97093.31;1756525;78;25847;-85
2021/03/08 01:05:23;;;;;;;142.18;63.25;;;;;;;-2.45;62.41;97080.02;1755032;78;25732;-84
2021/03/08 01:07:52;;;;;;;158.55;67.20;;;;;;;-2.50;62.57;97084.87;1782504;78;26526;-85
2021/03/08 01:10:27;;;;;;;169.30;68.37;;;;;;;-2.50;62.67;97082.22;1815035;77;25773;-85
2021/03/08 01:12:55;;;;;;;164.93;66.60;;;;;;;-2.46;62.76;97075.21;1818739;77;27486;-85
2021/03/08 01:15:22;;;;;;;170.40;67.65;;;;;;;-2.52;62.72;97077.08;1787176;77;25717;-85
2021/03/08 01:17:50;;;;;;;151.90;62.67;;;;;;;-2.58;62.84;97074.52;1804203;77;25695;-84
2021/03/08 01:20:19;;;;;;;131.90;56.48;;;;;;;-2.62;62.92;97074.43;1836304;77;25841;-85
2021/03/08 01:22:48;;;;;;;135.50;56.95;;;;;;;-2.59;63.00;97078.12;1766630;80;26393;-84
2021/03/08 01:25:26;;;;;;;129.45;53.63;;;;;;;-2.68;63.07;97075.00;1786123;78;27565;-85
2021/03/08 01:27:53;;;;;;;148.75;62.38;;;;;;;-2.70;63.21;97070.33;1768111;78;25853;-85
2021/03/08 01:30:25;;;;;;;149.38;60.70;;;;;;;-2.73;63.29;97065.31;1766419;80;25740;-87
2021/03/08 01:32:53;;;;;;;153.00;58.92;;;;;;;-2.74;63.42;97061.00;1825821;77;26546;-85
2021/03/08 01:35:21;;;;;;;146.28;59.90;;;;;;;-2.72;63.58;97065.66;1842817;77;25682;-86
2021/03/08 01:37:49;;;;;;;146.95;59.60;;;;;;;-2.73;63.51;97060.03;1825094;77;27504;-85
2021/03/08 01:40:19;;;;;;;146.00;55.55;;;;;;;-2.71;63.67;97056.77;1801205;77;25710;-85
2021/03/08 01:42:46;;;;;;;144.43;55.98;;;;;;;-2.70;63.71;97049.19;1802325;77;25913;-87
2021/03/08 01:45:17;;;;;;;123.75;50.28;;;;;;;-2.63;63.74;97046.82;1810953;77;25566;-84
2021/03/08 01:47:46;;;;;;;116.85;49.75;;;;;;;-2.62;63.98;97046.69;1833522;77;25807;-84
2021/03/08 01:50:35;;;;;;;116.37;48.85;;;;;;;-2.74;63.75;97050.91;1835991;77;27543;-85
2021/03/08 01:53:05;;;;;;;117.67;49.93;;;;;;;-2.81;63.95;97049.33;1851554;77;25880;-85
2021/03/08 01:55:33;;;;;;;114.20;49.70;;;;;;;-2.81;64.14;97042.72;1830935;77;25623;-84
2021/03/08 01:58:01;;;;;;;110.63;47.50;;;;;;;-2.78;64.17;97044.26;1804598;79;25793;-84
2021/03/08 02:00:30;;;;;;;108.32;47.30;;;;;;;-2.84;64.09;97035.55;1807973;77;25805;-84
2021/03/08 02:02:59;;;;;;;110.78;47.15;;;;;;;-2.84;64.40;97041.66;1847332;77;27547;-85
2021/03/08 02:05:33;;;;;;;106.25;46.95;;;;;;;-2.89;64.34;97045.19;1851259;77;25716;-83
2021/03/08 02:08:04;;;;;;;108.65;47.30;;;;;;;-2.87;64.52;97041.93;1830929;77;25864;-84
2021/03/08 02:10:38;;;;;;;98.72;44.65;;;;;;;-2.83;64.51;97043.82;1826382;77;25573;-84
2021/03/08 02:13:30;;;;;;;102.55;42.88;;;;;;;-2.87;64.38;97041.09;1831244;77;25766;-84
2021/03/08 02:16:08;;;;;;;101.67;43.58;;;;;;;-2.86;64.63;97039.64;1816849;77;27513;-83
2021/03/08 02:19:08;;;;;;;103.60;44.63;;;;;;;-2.79;64.80;97050.02;1770931;80;26133;-83
2021/03/08 02:22:04;;;;;;;101.60;44.60;;;;;;;-2.69;65.02;97048.22;1745015;80;25688;-84
2021/03/08 02:24:51;;;;;;;105.47;46.83;;;;;;;-2.70;65.04;97039.95;1757736;80;25726;-84
2021/03/08 02:27:59;;;;;;;106.87;45.78;;;;;;;-2.66;65.13;97038.70;1767170;80;25932;-84
2021/03/08 02:30:52;;;;;;;99.85;43.95;;;;;;;-2.47;65.28;97043.63;1754756;80;27590;-83
2021/03/08 02:33:23;;;;;;;94.40;40.25;;;;;;;-2.43;65.46;97041.91;1769590;80;25763;-83
2021/03/08 02:35:55;;;;;;;73.60;32.05;;;;;;;-2.49;65.49;97041.61;1785376;79;26289;-84
2021/03/08 02:38:30;;;;;;;104.75;44.90;;;;;;;-2.51;65.58;97040.42;1786030;80;25936;-84
2021/03/08 02:41:07;;;;;;;99.35;44.88;;;;;;;-2.47;65.54;97038.34;1785272;80;25747;-84
2021/03/08 02:43:47;;;;;;;102.15;43.05;;;;;;;-2.42;65.71;97041.42;1767473;80;27488;-83
2021/03/08 02:46:30;;;;;;;97.85;44.10;;;;;;;-2.38;65.76;97044.94;1749527;80;25747;-86
2021/03/08 02:49:02;;;;;;;100.67;41.83;;;;;;;-2.43;65.67;97037.94;1748627;80;25699;-84
2021/03/08 02:51:33;;;;;;;90.83;41.60;;;;;;;-2.41;65.76;97037.77;1755063;80;25770;-83
2021/03/08 02:54:04;;;;;;;109.87;47.78;;;;;;;-2.40;65.89;97034.16;1777260;80;26051;-84
2021/03/08 02:56:36;;;;;;;120.72;49.65;;;;;;;-2.38;65.85;97037.50;1777274;80;27602;-84
2021/03/08 02:59:06;;;;;;;;;;;;;;;-2.30;65.97;97036.33;1804990;78;26104;-85
2021/03/08 03:01:36;;;;;;;117.28;50.45;;;;;;;-2.25;66.10;97041.53;1824800;77;25876;-84
2021/03/08 03:04:06;;;;;;;100.60;46.10;;;;;;;-2.17;66.03;97041.64;1809593;77;25763;-85
2021/03/08 03:06:37;;;;;;;99.95;45.12;;;;;;;-2.08;66.03;97037.34;1818037;77;25834;-87
2021/03/08 03:09:10;;;;;;;110.20;46.60;;;;;;;-1.98;65.95;97046.09;1840444;77;27483;-84
2021/03/08 03:11:41;;;;;;;109.80;49.38;;;;;;;-1.90;66.04;97046.69;1823190;77;25739;-84
2021/03/08 03:14:09;;;;;;;115.10;49.45;;;;;;;-1.89;65.94;97049.68;1840048;77;25753;-84
2021/03/08 03:16:40;;;;;;;114.72;50.45;;;;;;;-1.81;66.04;97042.69;1807564;77;25559;-84
2021/03/08 03:19:10;;;;;;;103.25;45.83;;;;;;;-1.78;66.04;97048.67;1819628;77;25365;-85
2021/03/08 03:21:38;;;;;;;94.67;43.90;;;;;;;-1.72;66.18;97050.76;1819981;77;28904;-85
2021/03/08 03:24:08;;;;;;;103.85;47.55;;;;;;;-1.75;66.05;97053.69;1834916;77;25752;-84
2021/03/08 03:26:36;;;;;;;99.03;44.75;;;;;;;-1.67;66.02;97050.66;1804983;77;25722;-84
2021/03/08 03:29:05;;;;;;;103.75;47.33;;;;;;;-1.64;66.02;97042.92;1806779;77;26101;-86
2021/03/08 03:31:35;;;;;;;109.32;45.17;;;;;;;-1.64;66.07;97044.25;1788316;79;25781;-85
2021/03/08 03:34:04;;;;;;;107.20;47.13;;;;;;;-1.63;66.19;97041.95;1726854;80;27497;-84
2021/03/08 03:36:34;;;;;;;95.20;45.65;;;;;;;-1.68;66.15;97051.63;1809487;77;26231;-84
2021/03/08 03:39:04;;;;;;;108.35;48.38;;;;;;;-1.70;66.21;97044.84;1759082;77;25771;-84
2021/03/08 03:41:34;;;;;;;93.03;45.83;;;;;;;-1.67;66.37;97049.82;1823135;77;26391;-84
2021/03/08 03:44:03;;;;;;;101.33;45.17;;;;;;;-1.66;66.33;97036.94;1802418;77;25797;-84
2021/03/08 03:46:30;;;;;;;86.90;42.65;;;;;;;-1.59;66.49;97038.88;1821198;77;27496;-85
2021/03/08 03:48:58;;;;;;;94.35;44.60;;;;;;;-1.64;66.36;97035.81;1805322;77;26105;-85
2021/03/08 03:51:25;;;;;;;96.63;44.48;;;;;;;-1.64;66.53;97032.34;1832425;77;25631;-85
2021/03/08 03:53:53;;;;;;;97.40;44.35;;;;;;;-1.66;66.58;97033.80;1808253;77;25856;-85
2021/03/08 03:56:24;;;;;;;102.62;45.78;;;;;;;-1.57;66.71;97034.77;1802219;79;25862;-86
2021/03/08 03:59:05;;;;;;;73.00;33.67;;;;;;;-1.35;66.66;97038.36;1818764;77;27537;-84
2021/03/08 04:01:38;;;;;;;94.75;43.10;;;;;;;-1.35;66.66;97038.36;1811301;77;25745;-85
2021/03/08 04:04:15;;;;;;;85.60;42.33;;;;;;;-1.30;66.55;97043.20;1787550;77;25775;-84
2021/03/08 04:06:49;;;;;;;82.47;42.88;;;;;;;-1.24;66.48;97040.81;1818888;77;26349;-86
2021/03/08 04:09:19;;;;;;;82.20;41.08;;;;;;;-1.18;66.44;97042.02;1821746;77;26446;-84
2021/03/08 04:11:51;;;;;;;83.52;39.65;;;;;;;-1.19;66.43;97039.03;1837077;77;27458;-84
2021/03/08 04:14:24;;;;;;;54.97;27.87;;;;;;;-1.18;66.38;97039.38;1838840;77;25697;-84
2021/03/08 04:16:58;;;;;;;89.28;41.85;;;;;;;-1.15;66.40;97031.98;1805760;79;25698;-84
2021/03/08 04:19:30;;;;;;;81.08;40.23;;;;;;;-1.16;66.37;97035.61;1801947;77;26436;-84
2021/03/08 04:22:02;;;;;;;62.45;30.52;;;;;;;-1.09;66.54;97030.56;1794385;79;25828;-84
2021/03/08 04:24:32;;;;;;;76.28;39.05;;;;;;;-1.07;66.64;97035.69;1794033;77;27492;-85
2021/03/08 04:27:05;;;;;;;79.32;40.92;;;;;;;-1.10;66.56;97036.84;1787276;79;25763;-84
2021/03/08 04:29:39;;;;;;;78.45;38.95;;;;;;;-1.09;66.57;97033.22;1803401;77;25798;-84
2021/03/08 04:32:09;;;;;;;81.15;40.67;;;;;;;-1.09;66.54;97032.70;1835952;77;25805;-85
2021/03/08 04:34:37;;;;;;;75.32;39.08;;;;;;;-0.99;66.64;97035.80;1814060;77;26496;-85
2021/03/08 04:37:06;;;;;;;76.55;39.58;;;;;;;-0.92;66.58;97032.89;1801803;77;27477;-84
2021/03/08 04:39:36;;;;;;;76.45;38.53;;;;;;;-0.92;66.53;97029.75;1824490;77;25837;-85
2021/03/08 04:42:06;;;;;;;77.58;39.60;;;;;;;-0.97;66.47;97017.45;1802934;77;25784;-85
2021/03/08 04:44:36;;;;;;;78.80;39.73;;;;;;;-0.97;66.43;97020.59;1801296;77;26264;-84
2021/03/08 04:47:07;;;;;;;76.02;39.48;;;;;;;-0.89;66.52;97016.70;1805643;77;25862;-84
2021/03/08 04:49:36;;;;;;;130.27;56.63;;;;;;;-0.78;66.44;97024.44;1793852;77;29249;-84
2021/03/08 04:52:06;;;;;;;171.45;69.53;;;;;;;-0.66;66.16;97016.59;1816439;77;25673;-84
2021/03/08 04:54:36;;;;;;;157.05;66.87;;;;;;;-0.54;66.16;97016.72;1824646;77;25568;-84
2021/03/08 04:57:06;;;;;;;114.97;52.25;;;;;;;-0.45;65.95;97014.47;1793235;77;25590;-85
2021/03/08 04:59:34;;;;;;;93.90;44.70;;;;;;;-0.37;65.98;97015.89;1756643;80;25351;-83
2021/03/08 05:02:01;;;;;;;93.33;45.03;;;;;;;-0.40;65.94;97014.86;1791378;77;27548;-84
2021/03/08 05:04:30;;;;;;;91.90;44.90;;;;;;;-0.43;65.91;97014.32;1787279;77;25375;-84
2021/03/08 05:06:59;;;;;;;82.00;42.00;;;;;;;-0.44;66.05;97013.48;1800111;77;25789;-84
2021/03/08 05:09:28;;;;;;;72.15;37.95;;;;;;;-0.40;65.88;97018.00;1794645;77;27065;-84
2021/03/08 05:11:58;;;;;;;80.38;40.45;;;;;;;-0.34;65.43;97015.21;1809716;77;26182;-84
2021/03/08 05:14:27;;;;;;;80.15;39.70;;;;;;;-0.25;65.29;97015.64;1832874;77;27613;-84
2021/03/08 05:16:56;;;;;;;89.90;41.80;;;;;;;-0.23;65.06;97014.48;1796160;77;26165;-84
2021/03/08 05:19:24;;;;;;;82.30;40.50;;;;;;;-0.16;65.16;97021.34;1831309;77;25642;-84
2021/03/08 05:21:53;;;;;;;75.97;37.83;;;;;;;-0.16;65.19;97021.34;1827437;77;25722;-84
2021/03/08 05:24:21;;;;;;;72.17;36.60;;;;;;;-0.20;65.11;97018.66;1814297;77;25696;-84
2021/03/08 05:26:49;;;;;;;76.42;38.20;;;;;;;-0.27;65.05;97014.95;1825369;77;27473;-84
2021/03/08 05:29:16;;;;;;;74.12;38.60;;;;;;;-0.25;65.08;97009.02;1803480;77;25692;-84
2021/03/08 05:31:46;;;;;;;76.22;39.48;;;;;;;-0.26;65.08;97002.88;1842738;77;25251;-84
2021/03/08 05:34:19;;;;;;;71.77;40.45;;;;;;;-0.23;65.02;97014.97;1841766;77;25796;-84
2021/03/08 05:36:49;;;;;;;81.53;43.00;;;;;;;-0.18;65.00;97021.98;1809662;77;26382;-85
2021/03/08 05:39:19;;;;;;;74.20;40.10;;;;;;;-0.19;65.03;97018.50;1809634;77;27516;-83
2021/03/08 05:42:09;;;;;;;63.08;33.20;;;;;;;-0.16;65.07;97020.02;1835396;77;26336;-84
2021/03/08 05:45:03;;;;;;;72.32;38.38;;;;;;;-0.22;64.72;97024.11;1842703;77;25681;-84
2021/03/08 05:48:09;;;;;;;70.97;38.70;;;;;;;-0.17;64.86;97019.68;1809748;77;25768;-83
2021/03/08 05:51:00;;;;;;;72.03;38.25;;;;;;;-0.13;65.05;97022.38;1808124;77;25758;-84
2021/03/08 05:54:07;;;;;;;73.57;37.50;;;;;;;-0.16;64.93;97024.00;1821809;77;27496;-82
2021/03/08 05:57:06;;;;;;;75.83;39.42;;;;;;;-0.15;64.98;97037.61;1825188;77;25711;-82
2021/03/08 06:00:04;;;;;;;66.95;35.20;;;;;;;-0.22;64.96;97035.20;1826297;77;25773;-82
2021/03/08 06:02:49;;;;;;;66.87;35.23;;;;;;;-0.33;64.94;97040.75;1815466;77;25731;-83
2021/03/08 06:06:11;;;;;;;60.23;33.75;;;;;;;-0.26;65.05;97040.01;1844560;77;25676;-83
2021/03/08 06:09:01;;;;;;;64.22;35.78;;;;;;;-0.23;65.15;97048.96;1847314;76;32874;-83
2021/03/08 06:11:32;;;;;;;66.02;36.10;;;;;;;-0.17;65.00;97054.16;1848874;77;25777;-83
2021/03/08 06:14:02;;;;;;;63.52;35.30;;;;;;;-0.09;64.93;97060.36;1822203;76;25767;-83
2021/03/08 06:16:35;;;;;;;68.35;37.20;;;;;;;-0.02;64.81;97061.43;1813219;77;25753;-83
2021/03/08 06:19:06;;;;;;;69.20;37.90;;;;;;;0.02;64.67;97057.95;1848358;77;25735;-83
2021/03/08 06:21:35;;;;;;;63.68;35.58;;;;;;;0.04;64.71;97067.92;1848730;77;27488;-83
2021/03/08 06:24:06;;;;;;;87.50;46.15;;;;;;;0.02;64.68;97057.13;1825467;77;26280;-85
2021/03/08 06:26:33;;;;;;;96.10;46.98;;;;;;;0.00;64.72;97059.95;1815540;77;25724;-84
2021/03/08 06:29:01;;;;;;;88.47;45.60;;;;;;;0.01;64.84;97066.90;1810802;77;26240;-85
2021/03/08 06:31:28;;;;;;;85.00;43.63;;;;;;;0.05;64.84;97073.58;1823098;77;25869;-84
2021/03/08 06:33:56;;;;;;;86.08;42.80;;;;;;;0.12;64.70;97071.95;1808676;77;27504;-83
2021/03/08 06:36:24;;;;;;;141.10;58.63;;;;;;;0.17;64.72;97077.65;1768065;80;25772;-83
2021/03/08 06:38:51;;;;;;;119.42;54.35;;;;;;;0.25;64.58;97076.38;1777683;80;25722;-83
2021/03/08 06:41:20;;;;;;;134.75;56.20;;;;;;;0.32;64.57;97073.95;1752131;80;26654;-83
2021/03/08 06:43:48;;;;;;;123.05;51.92;;;;;;;0.38;64.42;97081.27;1754278;79;25723;-83
2021/03/08 06:46:16;;;;;;;83.78;42.95;;;;;;;0.43;64.38;97075.50;1793838;79;27503;-83
2021/03/08 06:48:44;;;;;;;72.20;38.85;;;;;;;0.45;64.40;97079.67;1759898;80;25401;-83
2021/03/08 06:51:17;;;;;;;68.62;39.65;;;;;;;0.50;64.26;97077.86;1758633;80;25736;-82
2021/03/08 06:53:47;;;;;;;105.75;52.30;;;;;;;0.55;64.12;97074.25;1768474;80;26542;-82
2021/03/08 06:56:18;;;;;;;126.07;57.38;;;;;;;0.62;64.07;97083.25;1786351;78;25816;-82
2021/03/08 06:59:08;;;;;;;84.90;41.77;;;;;;;0.67;64.05;97087.61;1757021;80;27509;-82
2021/03/08 07:01:39;;;;;;;91.20;42.08;;;;;;;0.68;63.84;97094.59;1746878;80;25740;-82
2021/03/08 07:04:19;;;;;;;77.53;40.65;;;;;;;0.67;63.86;97091.59;1750332;79;25825;-83
2021/03/08 07:07:05;;;;;;;86.65;41.92;;;;;;;0.70;63.88;97091.28;1795494;77;26368;-83
2021/03/08 07:09:34;;;;;;;64.53;35.80;;;;;;;0.73;63.98;97093.59;1797553;77;25868;-83
2021/03/08 07:12:09;;;;;;;68.55;37.23;;;;;;;0.73;63.83;97097.59;1824872;77;27719;-83
2021/03/08 07:14:42;;;;;;;58.65;34.25;;;;;;;0.71;63.74;97104.91;1835548;77;25676;-82
2021/03/08 07:17:36;;;;;;;65.03;38.10;;;;;;;0.70;63.93;97108.55;1819263;77;25804;-83
2021/03/08 07:20:08;;;;;;;73.75;41.48;;;;;;;0.71;64.11;97106.23;1815031;77;25808;-83
2021/03/08 07:22:54;;;;;;;60.47;30.83;;;;;;;0.75;64.09;97108.06;1834034;77;25753;-82
2021/03/08 07:25:31;;;;;;;74.22;38.35;;;;;;;0.77;64.28;97113.56;1842351;77;28821;-83
2021/03/08 07:28:05;;;;;;;68.83;39.20;;;;;;;0.79;64.39;97119.55;1797411;77;26475;-82
2021/03/08 07:30:39;;;;;;;75.05;42.38;;;;;;;0.70;64.54;97114.70;1813231;77;25663;-82
2021/03/08 07:33:12;;;;;;;75.50;40.60;;;;;;;0.71;64.69;97119.52;1841598;77;25786;-83
2021/03/08 07:35:49;;;;;;;78.10;38.75;;;;;;;0.71;64.88;97124.83;1822064;77;26257;-83
2021/03/08 07:38:36;;;;;;;69.25;37.10;;;;;;;0.70;65.03;97123.16;1832883;77;27680;-82
2021/03/08 07:41:19;;;;;;;72.20;38.83;;;;;;;0.64;65.08;97129.09;1833790;77;25753;-83
2021/03/08 07:43:53;;;;;;;77.27;39.40;;;;;;;0.46;65.22;97129.14;1842104;77;45306;-83
2021/03/08 07:46:33;;;;;;;76.02;39.18;;;;;;;0.40;65.67;97128.92;1831328;77;25741;-84
2021/03/08 07:49:07;;;;;;;70.28;39.03;;;;;;;0.37;65.81;97138.02;1809463;77;25705;-81
2021/03/08 07:51:35;;;;;;;64.87;35.60;;;;;;;0.42;65.91;97132.25;1815151;77;27542;-82
2021/03/08 07:54:08;;;;;;;60.88;35.30;;;;;;;0.43;65.73;97139.23;1836575;77;25821;-83
2021/03/08 07:56:36;;;;;;;59.85;33.80;;;;;;;0.43;65.74;97139.23;1833444;77;25670;-83
2021/03/08 07:59:04;;;;;;;73.02;39.80;;;;;;;0.33;65.65;97141.99;1802668;77;25690;-83
2021/03/08 08:01:31;;;;;;;69.25;37.88;;;;;;;0.24;65.99;97141.59;1806033;77;25777;-82
2021/03/08 08:03:59;;;;;;;75.65;39.55;;;;;;;0.29;66.07;97146.77;1822508;77;27564;-82
2021/03/08 08:06:27;;;;;;;78.30;41.15;;;;;;;0.36;66.09;97149.66;1815743;77;26278;-83
2021/03/08 08:08:56;;;;;;;73.30;39.83;;;;;;;0.43;66.19;97142.72;1775564;80;25728;-83
2021/03/08 08:11:29;;;;;;;102.58;49.83;;;;;;;0.50;66.24;97142.92;1821219;77;26443;-83
2021/03/08 08:14:04;;;;;;;209.87;103.25;;;;;;;0.60;66.21;97147.67;1806076;77;26010;-86
2021/03/08 08:16:35;;;;;;;159.15;83.47;;;;;;;0.67;66.21;97150.03;1799884;77;27485;-83
2021/03/08 08:19:07;;;;;;;105.90;56.03;;;;;;;0.74;66.23;97160.36;1833570;77;25721;-86
2021/03/08 08:21:39;;;;;;;109.83;50.35;;;;;;;0.79;66.24;97159.91;1809556;77;25716;-83
2021/03/08 08:24:23;;;;;;;;;;;;;;;0.79;66.17;97158.08;1797524;77;26258;-84
2021/03/08 08:26:58;;;;;;;107.37;52.27;;;;;;;0.79;66.23;97162.06;1800874;77;25782;-82
2021/03/08 08:29:27;;;;;;;84.13;42.30;;;;;;;0.77;66.19;97158.73;1802844;77;28651;-83
2021/03/08 08:32:06;;;;;;;94.83;47.83;;;;;;;0.75;66.22;97166.51;1793940;77;25675;-83
2021/03/08 08:34:43;;;;;;;112.10;55.95;;;;;;;0.69;66.00;97164.00;1784874;79;25774;-82
2021/03/08 08:37:15;;;;;;;104.25;54.18;;;;;;;0.67;66.19;97163.31;1819510;77;25744;-83
2021/03/08 08:39:57;;;;;;;101.20;51.45;;;;;;;0.71;66.33;97162.86;1802379;79;25747;-82
2021/03/08 08:42:28;;;;;;;86.40;45.63;;;;;;;0.73;66.37;97164.00;1742427;80;27592;-83
2021/03/08 08:44:58;;;;;;;103.53;49.08;;;;;;;0.76;66.30;97165.03;1805658;77;25695;-82
2021/03/08 08:47:33;;;;;;;83.87;49.33;;;;;;;0.70;66.52;97171.81;1799450;77;25715;-82
2021/03/08 08:50:07;;;;;;;85.30;49.35;;;;;;;0.77;66.60;97166.70;1786883;77;26465;-82
2021/03/08 08:52:53;;;;;;;92.85;48.02;;;;;;;0.82;66.56;97161.77;1774990;79;26299;-82
2021/03/08 08:55:32;;;;;;;85.53;47.43;;;;;;;0.84;66.54;97159.78;1807420;78;27553;-82
2021/03/08 08:58:25;;;;;;;74.75;41.73;;;;;;;0.87;66.53;97162.11;1784149;79;25769;-82
2021/03/08 09:01:12;;;;;;;;;;;;;;;0.90;66.48;97160.97;1811061;78;25841;-82
2021/03/08 09:04:00;;;;;;;83.25;41.65;;;;;;;0.92;66.64;97164.30;1795249;78;25798;-83
2021/03/08 09:06:44;;;;;;;72.58;39.67;;;;;;;0.92;66.56;97169.12;1812196;78;26398;-83
2021/03/08 09:09:15;;;;;;;73.25;41.80;;;;;;;0.92;66.52;97174.44;1806588;79;27502;-82
2021/03/08 09:12:02;;;;;;;78.30;42.80;;;;;;;0.92;66.51;97170.95;1812434;79;26214;-82
2021/03/08 09:14:41;;;;;;;80.92;43.85;;;;;;;0.94;66.51;97168.48;1810158;78;25744;-84
2021/03/08 09:17:33;;;;;;;78.17;43.00;;;;;;;0.98;66.58;97175.13;1804381;78;25861;-82
2021/03/08 09:20:06;;;;;;;83.90;44.70;;;;;;;1.00;66.60;97169.66;1805834;78;25791;-82
2021/03/08 09:22:44;;;;;;;83.92;43.02;;;;;;;1.03;66.76;97178.16;1787540;78;28453;-82
2021/03/08 09:25:15;;;;;;;79.37;42.98;;;;;;;1.08;66.69;97182.52;1812405;78;25749;-83
2021/03/08 09:27:50;;;;;;;78.05;43.55;;;;;;;1.11;66.71;97180.52;1804776;78;25920;-82
2021/03/08 09:30:23;;;;;;;80.42;44.90;;;;;;;1.12;66.75;97180.36;1750811;80;25765;-83
2021/03/08 09:33:05;;;;;;;80.17;44.83;;;;;;;1.11;66.63;97184.50;1728551;80;25881;-82
2021/03/08 09:35:36;;;;;;;;;;;;;;;1.08;66.87;97190.50;1755847;80;27533;-83
2021/03/08 09:38:10;;;;;;;80.87;42.60;;;;;;;1.12;67.01;97188.83;1731468;81;25730;-82
2021/03/08 09:40:42;;;;;;;90.15;46.28;;;;;;;1.15;67.02;97194.67;1715497;82;26037;-83
2021/03/08 09:43:34;;;;;;;85.30;45.17;;;;;;;1.15;66.95;97197.33;1715044;82;26454;-82
2021/03/08 09:46:16;;;;;;;90.25;47.13;;;;;;;1.16;66.89;97196.34;1721478;81;25895;-83
2021/03/08 09:48:53;;;;;;;82.95;44.85;;;;;;;1.18;66.99;97194.86;1709232;81;27561;-82
2021/03/08 09:51:21;;;;;;;89.77;47.98;;;;;;;1.20;66.96;97207.50;1733283;80;26616;-83
2021/03/08 09:53:55;;;;;;;96.87;49.93;;;;;;;1.15;67.11;97205.80;1751072;79;25744;-83
2021/03/08 09:56:26;;;;;;;87.65;45.33;;;;;;;1.17;67.09;97211.31;1770038;80;25763;-85
2021/03/08 09:59:08;;;;;;;91.25;47.53;;;;;;;1.13;67.18;97199.80;1759371;81;25761;-83
2021/03/08 10:01:35;;;;;;;88.42;46.08;;;;;;;1.15;67.42;97207.12;1773824;79;27491;-83
2021/03/08 10:04:04;;;;;;;86.55;47.45;;;;;;;1.17;67.48;97208.65;1755428;80;25749;-83
2021/03/08 10:06:35;;;;;;;85.40;47.00;;;;;;;1.23;67.57;97215.98;1755376;80;26269;-84
2021/03/08 10:09:21;;;;;;;89.65;46.55;;;;;;;1.30;67.64;97215.70;1768441;80;25771;-83
2021/03/08 10:11:48;;;;;;;94.80;48.90;;;;;;;1.32;67.56;97219.05;1750894;80;25741;-83
2021/03/08 10:14:24;;;;;;;87.42;46.70;;;;;;;1.32;67.52;97215.55;1775287;79;27525;-88
2021/03/08 10:17:04;;;;;;;80.47;42.88;;;;;;;1.22;67.32;97223.61;1779465;80;28381;-82
2021/03/08 10:19:33;;;;;;;77.40;41.10;;;;;;;1.11;67.27;97232.35;1779490;80;25688;-84
2021/03/08 10:22:00;;;;;;;85.30;43.55;;;;;;;1.09;67.55;97236.49;1779534;80;25777;-84
2021/03/08 10:24:40;;;;;;;69.40;38.58;;;;;;;1.08;67.61;97238.34;1779566;80;25728;-84
2021/03/08 10:27:10;;;;;;;66.45;34.48;;;;;;;1.05;67.54;97234.66;1779646;80;27721;-85
2021/03/08 10:29:42;;;;;;;42.60;24.77;;;;;;;0.94;67.09;97242.89;1774992;80;25658;-86
2021/03/08 10:32:11;;;;;;;30.92;14.18;;;;;;;0.50;66.63;97250.48;1765446;79;25845;-84
2021/03/08 10:34:41;;;;;;;21.23;11.68;;;;;;;0.31;66.81;97251.00;1767988;79;25871;-84
2021/03/08 10:37:12;;;;;;;17.82;8.95;;;;;;;0.41;66.97;97252.73;1747204;81;25817;-86
2021/03/08 10:39:40;;;;;;;16.73;8.25;;;;;;;0.53;66.82;97251.52;1776820;80;28580;-84
2021/03/08 10:42:09;;;;;;;15.93;7.00;;;;;;;0.55;66.42;97252.20;1782753;79;25834;-83
2021/03/08 10:44:38;;;;;;;23.60;10.45;;;;;;;0.47;66.20;97254.80;1782876;80;25836;-84
2021/03/08 10:47:17;;;;;;;11.78;7.85;;;;;;;0.55;66.15;97265.48;1782778;80;25765;-84
2021/03/08 10:49:54;;;;;;;17.70;9.68;;;;;;;0.56;65.96;97261.84;1782737;80;26058;-83
2021/03/08 10:52:23;;;;;;;19.42;10.50;;;;;;;0.61;66.06;97264.36;1795407;79;29004;-83
2021/03/08 10:54:51;;;;;;;19.25;10.03;;;;;;;0.69;65.88;97271.09;1788966;79;25737;-83
2021/03/08 10:57:20;;;;;;;23.20;11.35;;;;;;;0.73;65.63;97261.81;1797862;79;26268;-83
2021/03/08 10:59:50;;;;;;;23.07;12.33;;;;;;;0.76;65.43;97273.96;1803472;79;25722;-83
2021/03/08 11:02:20;;;;;;;25.32;13.55;;;;;;;0.75;65.71;97274.95;1799432;78;25762;-84
2021/03/08 11:04:51;;;;;;;22.65;12.43;;;;;;;0.79;66.04;97281.63;1802141;79;28567;-83
2021/03/08 11:07:33;;;;;;;19.95;9.98;;;;;;;0.86;65.75;97278.69;1805477;79;25706;-83
2021/03/08 11:10:00;;;;;;;18.82;10.00;;;;;;;0.96;65.57;97269.32;1799190;79;32546;-83
2021/03/08 11:12:28;;;;;;;14.50;9.00;;;;;;;0.88;65.38;97270.08;1794141;79;26547;-83
2021/03/08 11:14:57;;;;;;;14.13;8.65;;;;;;;0.88;65.51;97271.41;1779406;79;25806;-83
2021/03/08 11:17:43;;;;;;;14.47;9.23;;;;;;;0.88;65.10;97274.06;1768141;80;26696;-84
2021/03/08 11:20:19;;;;;;;19.48;10.20;;;;;;;0.85;65.23;97273.03;1777801;80;25814;-83
2021/03/08 11:22:59;;;;;;;17.73;8.93;;;;;;;0.85;65.15;97288.98;1789951;79;25798;-83
2021/03/08 11:25:45;;;;;;;14.80;9.68;;;;;;;0.88;64.86;97279.37;1842703;77;25786;-82
2021/03/08 11:28:16;;;;;;;19.27;10.28;;;;;;;0.92;64.94;97282.08;1836845;77;25725;-83
2021/03/08 11:30:50;;;;;;;26.45;13.08;;;;;;;1.02;64.91;97280.16;1837609;77;27374;-83
2021/03/08 11:33:19;;;;;;;28.32;14.35;;;;;;;0.99;65.09;97279.62;1837995;77;25702;-82
2021/03/08 11:35:55;;;;;;;34.35;16.67;;;;;;;1.06;65.47;97282.02;1836889;77;25828;-84
2021/03/08 11:38:26;;;;;;;67.87;25.52;;;;;;;1.22;65.52;97283.44;1813813;77;25818;-84
2021/03/08 11:40:55;;;;;;;36.73;14.70;;;;;;;1.33;65.57;97283.17;1798874;77;25794;-84
2021/03/08 11:43:25;;;;;;;23.62;11.35;;;;;;;1.49;65.25;97287.77;1813032;77;27484;-84
2021/03/08 11:45:53;;;;;;;23.30;12.37;;;;;;;1.54;65.18;97281.98;1841040;77;25753;-86
2021/03/08 11:48:24;;;;;;;19.80;11.48;;;;;;;1.57;65.30;97287.80;1834568;77;25670;-84